createdAt,value
2022-09-10T00:00:42.429Z,91.97
2022-09-10T00:03:43.873Z,91.88
2022-09-10T00:06:45.410Z,91.80
2022-09-10T00:09:46.825Z,91.59
2022-09-10T00:12:48.245Z,91.44
2022-09-10T00:15:52.612Z,91.53
2022-09-10T00:18:54.113Z,91.41
2022-09-10T00:21:55.438Z,91.43
2022-09-10T00:24:56.842Z,91.64
2022-09-10T00:27:59.122Z,91.93
2022-09-10T00:31:03.486Z,92.05
2022-09-10T00:34:06.007Z,92.35
2022-09-10T00:37:07.447Z,92.28
2022-09-10T00:40:09.218Z,92.21
2022-09-10T00:43:14.559Z,92.23
2022-09-10T00:46:39.482Z,91.91
2022-09-10T00:49:46.646Z,92.34
2022-09-10T00:52:50.911Z,92.52
2022-09-10T00:55:56.005Z,92.49
2022-09-10T00:58:57.779Z,92.47
2022-09-10T01:01:59.198Z,92.74
2022-09-10T01:05:03.784Z,92.78
2022-09-10T01:08:05.523Z,93.00
2022-09-10T01:11:15.839Z,92.74
2022-09-10T01:14:47.910Z,92.97
2022-09-10T01:17:49.232Z,93.36
2022-09-10T01:21:13.016Z,92.94
2022-09-10T01:24:52.085Z,92.84
2022-09-10T01:27:58.081Z,93.21
2022-09-10T01:31:09.758Z,92.84
2022-09-10T01:34:29.300Z,92.47
2022-09-10T01:37:32.897Z,92.81
2022-09-10T01:40:35.674Z,92.62
2022-09-10T01:43:41.001Z,92.76
2022-09-10T01:46:54.840Z,92.54
2022-09-10T01:50:20.660Z,92.25
2022-09-10T01:53:54.016Z,92.45
2022-09-10T01:57:18.737Z,92.24
2022-09-10T02:00:20.898Z,92.79
2022-09-10T02:03:26.074Z,92.53
2022-09-10T02:06:31.017Z,92.61
2022-09-10T02:09:34.205Z,92.87
2022-09-10T02:12:36.234Z,92.83
2022-09-10T02:15:57.372Z,92.83
2022-09-10T02:19:02.263Z,92.91
2022-09-10T02:22:05.438Z,93.02
2022-09-10T02:25:07.725Z,92.80
2022-09-10T02:28:10.118Z,92.86
2022-09-10T02:31:12.259Z,92.91
2022-09-10T02:34:13.862Z,92.58
2022-09-10T02:37:15.298Z,92.50
2022-09-10T02:40:18.022Z,92.45
2022-09-10T02:43:19.860Z,92.58
2022-09-10T02:46:21.883Z,93.03
2022-09-10T02:49:23.271Z,92.70
2022-09-10T02:52:25.752Z,92.88
2022-09-10T02:55:28.140Z,93.03
2022-09-10T02:58:30.155Z,93.50
2022-09-10T03:01:32.584Z,93.73
2022-09-10T03:04:36.929Z,93.55
2022-09-10T03:07:38.476Z,93.63
2022-09-10T03:10:39.937Z,93.65
2022-09-10T03:13:41.640Z,93.99
2022-09-10T03:16:43.062Z,94.00
2022-09-10T03:19:44.436Z,94.28
2022-09-10T03:22:45.773Z,94.50
2022-09-10T03:25:50.120Z,94.60
2022-09-10T03:28:56.073Z,94.72
2022-09-10T03:32:00.136Z,94.67
2022-09-10T03:35:01.672Z,94.94
2022-09-10T03:38:03.021Z,95.13
2022-09-10T03:41:04.537Z,94.98
2022-09-10T03:44:06.335Z,95.06
2022-09-10T03:47:07.833Z,95.18
2022-09-10T03:50:09.641Z,95.37
2022-09-10T03:53:12.626Z,95.35
2022-09-10T03:56:14.101Z,95.49
2022-09-10T03:59:15.626Z,95.74
2022-09-10T04:02:18.293Z,95.61
2022-09-10T04:05:21.075Z,95.57
2022-09-10T04:08:24.095Z,95.48
2022-09-10T04:11:28.018Z,95.37
2022-09-10T04:14:31.140Z,95.29
2022-09-10T04:17:32.478Z,95.26
2022-09-10T04:20:34.047Z,95.34
2022-09-10T04:23:41.756Z,95.22
2022-09-10T04:26:44.234Z,95.09
2022-09-10T04:29:47.124Z,95.12
2022-09-10T04:32:50.178Z,95.29
2022-09-10T04:35:51.599Z,95.29
2022-09-10T04:38:53.125Z,95.14
2022-09-10T04:41:54.511Z,95.53
2022-09-10T04:44:56.391Z,95.29
2022-09-10T04:47:57.851Z,95.36
2022-09-10T04:51:15.631Z,95.25
2022-09-10T04:54:19.573Z,95.55
2022-09-10T04:57:21.059Z,95.38
2022-09-10T05:00:22.883Z,95.21
2022-09-10T05:03:24.645Z,95.19
2022-09-10T05:06:27.736Z,95.27
2022-09-10T05:09:30.768Z,95.29
2022-09-10T05:12:33.913Z,95.21
2022-09-10T05:15:39.589Z,95.19
2022-09-10T05:18:41.060Z,95.42
2022-09-10T05:21:44.696Z,95.50
2022-09-10T05:24:46.295Z,95.51
2022-09-10T05:27:47.825Z,95.51
2022-09-10T05:30:53.205Z,95.27
2022-09-10T05:33:57.769Z,95.17
2022-09-10T05:36:59.212Z,94.94
2022-09-10T05:40:00.790Z,94.98
2022-09-10T05:43:02.317Z,94.80
2022-09-10T05:46:04.915Z,94.98
2022-09-10T05:49:06.410Z,95.25
2022-09-10T05:52:07.782Z,95.32
2022-09-10T05:55:09.706Z,95.58
2022-09-10T05:58:11.243Z,95.67
2022-09-10T06:01:14.325Z,95.73
2022-09-10T06:04:18.221Z,96.15
2022-09-10T06:07:19.758Z,95.66
2022-09-10T06:10:21.168Z,95.07
2022-09-10T06:13:26.268Z,94.80
2022-09-10T06:16:27.763Z,94.71
2022-09-10T06:19:30.431Z,94.58
2022-09-10T06:22:33.354Z,92.92
2022-09-10T06:25:34.811Z,91.55
2022-09-10T06:28:37.346Z,91.27
2022-09-10T06:31:40.440Z,89.50
2022-09-10T06:34:42.535Z,89.85
2022-09-10T06:37:43.952Z,90.59
2022-09-10T06:40:57.967Z,90.58
2022-09-10T06:43:59.479Z,90.36
2022-09-10T06:47:55.502Z,90.84
2022-09-10T06:50:31.919Z,90.69
2022-09-10T06:53:34.924Z,90.87
2022-09-10T06:56:38.009Z,90.72
2022-09-10T06:59:39.908Z,90.93
2022-09-10T07:02:41.416Z,89.86
2022-09-10T07:05:46.656Z,89.20
2022-09-10T07:08:48.262Z,88.92
2022-09-10T07:11:49.616Z,88.73
2022-09-10T07:14:52.405Z,88.28
2022-09-10T07:17:54.756Z,88.64
2022-09-10T07:21:14.165Z,88.26
2022-09-10T07:24:20.033Z,88.42
2022-09-10T07:27:33.944Z,87.61
2022-09-10T07:30:35.367Z,87.28
2022-09-10T07:33:37.066Z,87.14
2022-09-10T07:36:38.645Z,86.31
2022-09-10T07:39:40.077Z,86.11
2022-09-10T07:42:41.550Z,85.36
2022-09-10T07:45:43.027Z,84.26
2022-09-10T07:48:45.182Z,77.42
2022-09-10T07:51:46.690Z,71.94
2022-09-10T07:54:48.826Z,71.85
2022-09-10T07:57:51.142Z,71.49
2022-09-10T08:00:52.898Z,66.80
2022-09-10T08:03:58.482Z,62.47
2022-09-10T08:07:01.031Z,61.22
2022-09-10T08:10:02.942Z,62.38
2022-09-10T08:13:04.470Z,61.27
2022-09-10T08:16:10.580Z,59.56
2022-09-10T08:19:13.435Z,61.84
2022-09-10T08:22:14.859Z,67.93
2022-09-10T08:25:23.008Z,71.11
2022-09-10T08:28:25.812Z,71.75
2022-09-10T08:31:28.137Z,72.18
2022-09-10T08:34:42.663Z,73.14
2022-09-10T08:37:46.049Z,73.53
2022-09-10T08:40:50.517Z,73.24
2022-09-10T08:44:09.624Z,72.93
2022-09-10T08:47:23.899Z,72.76
2022-09-10T08:50:37.492Z,73.26
2022-09-10T08:54:00.599Z,73.01
2022-09-10T08:57:02.458Z,73.30
2022-09-10T09:00:05.009Z,73.99
2022-09-10T09:03:29.276Z,73.80
2022-09-10T09:06:40.772Z,75.17
2022-09-10T09:09:42.804Z,75.69
2022-09-10T09:13:11.190Z,75.51
2022-09-10T09:16:34.097Z,75.84
2022-09-10T09:19:44.502Z,77.03
2022-09-10T09:22:52.957Z,77.03
2022-09-10T09:26:13.997Z,76.37
2022-09-10T09:29:35.903Z,76.56
2022-09-10T09:32:42.360Z,77.14
2022-09-10T09:35:50.467Z,76.61
2022-09-10T09:38:52.775Z,76.31
2022-09-10T09:42:15.395Z,74.91
2022-09-10T09:45:38.033Z,74.66
2022-09-10T09:48:41.030Z,73.59
2022-09-10T09:51:48.250Z,73.27
2022-09-10T09:55:13.900Z,73.55
2022-09-10T09:58:22.412Z,73.31
2022-09-10T10:01:26.243Z,73.57
2022-09-10T10:04:28.259Z,74.27
2022-09-10T10:07:32.465Z,75.07
2022-09-10T10:10:33.992Z,75.14
2022-09-10T10:13:38.372Z,74.51
2022-09-10T10:16:39.797Z,74.10
2022-09-10T10:19:41.189Z,73.71
2022-09-10T10:22:44.944Z,72.58
2022-09-10T10:25:46.352Z,72.40
2022-09-10T10:28:51.128Z,71.66
2022-09-10T10:31:53.516Z,72.39
2022-09-10T10:35:30.817Z,72.01
2022-09-10T10:38:41.109Z,72.89
2022-09-10T10:42:16.581Z,73.68
2022-09-10T10:45:35.829Z,73.34
2022-09-10T10:48:57.776Z,73.22
2022-09-10T10:52:26.486Z,73.52
2022-09-10T10:55:38.654Z,74.38
2022-09-10T10:59:04.897Z,75.02
2022-09-10T11:02:20.996Z,74.75
2022-09-10T11:05:33.449Z,75.17
2022-09-10T11:08:47.974Z,75.75
2022-09-10T11:11:53.402Z,76.10
2022-09-10T11:15:02.054Z,76.22
2022-09-10T11:18:17.946Z,74.88
2022-09-10T11:21:29.975Z,74.84
2022-09-10T11:24:42.619Z,75.01
2022-09-10T11:27:48.907Z,75.11
2022-09-10T11:30:57.817Z,74.48
2022-09-10T11:34:12.271Z,72.56
2022-09-10T11:37:34.697Z,70.13
2022-09-10T11:40:43.891Z,71.66
2022-09-10T11:44:11.340Z,73.40
2022-09-10T11:47:22.448Z,73.96
2022-09-10T11:50:36.593Z,72.24
2022-09-10T11:53:37.976Z,73.13
2022-09-10T11:57:08.382Z,70.99
2022-09-10T12:00:17.440Z,71.63
2022-09-10T12:03:40.852Z,72.36
2022-09-10T12:07:16.294Z,72.54
2022-09-10T12:10:36.721Z,72.44
2022-09-10T12:13:38.905Z,72.56
2022-09-10T12:16:55.708Z,71.05
2022-09-10T12:20:00.698Z,71.83
2022-09-10T12:23:02.612Z,72.77
2022-09-10T12:26:11.529Z,73.19
2022-09-10T12:29:27.058Z,73.33
2022-09-10T12:32:29.493Z,74.98
2022-09-10T12:35:30.779Z,75.47
2022-09-10T12:38:44.355Z,74.90
2022-09-10T12:41:45.641Z,75.42
2022-09-10T12:44:47.175Z,75.90
2022-09-10T12:47:49.106Z,76.59
2022-09-10T12:50:56.386Z,76.48
2022-09-10T12:54:26.429Z,75.28
2022-09-10T12:57:35.362Z,74.15
2022-09-10T13:00:42.407Z,74.39
2022-09-10T13:03:55.142Z,74.33
2022-09-10T13:07:00.530Z,75.01
2022-09-10T13:10:22.619Z,75.12
2022-09-10T13:13:39.100Z,74.79
2022-09-10T13:16:41.827Z,75.65
2022-09-10T13:19:43.155Z,76.13
2022-09-10T13:23:11.763Z,75.61
2022-09-10T13:26:28.302Z,75.67
2022-09-10T13:29:34.536Z,75.93
2022-09-10T13:32:44.103Z,76.27
2022-09-10T13:35:53.035Z,76.20
2022-09-10T13:39:13.768Z,75.55
2022-09-10T13:42:35.758Z,75.50
2022-09-10T13:45:46.482Z,75.63
2022-09-10T13:49:10.280Z,74.67
2022-09-10T13:52:16.235Z,74.56
2022-09-10T13:55:25.858Z,74.06
2022-09-10T13:58:34.797Z,74.71
2022-09-10T14:01:53.557Z,74.46
2022-09-10T14:04:55.001Z,74.45
2022-09-10T14:07:59.989Z,73.93
2022-09-10T14:11:10.443Z,73.57
2022-09-10T14:14:24.301Z,73.57
2022-09-10T14:17:30.869Z,72.38
2022-09-10T14:20:34.586Z,71.91
2022-09-10T14:23:36.032Z,71.86
2022-09-10T14:26:37.394Z,72.02
2022-09-10T14:29:38.725Z,72.15
2022-09-10T14:32:40.062Z,71.90
2022-09-10T14:35:44.237Z,72.24
2022-09-10T14:39:11.350Z,72.00
2022-09-10T14:42:38.841Z,71.30
2022-09-10T14:45:45.531Z,70.86
2022-09-10T14:48:58.920Z,69.82
2022-09-10T14:52:01.382Z,70.29
2022-09-10T14:55:02.703Z,69.25
2022-09-10T14:58:04.552Z,68.19
2022-09-10T15:01:06.169Z,67.35
2022-09-10T15:04:13.671Z,66.50
2022-09-10T15:07:15.029Z,65.99
2022-09-10T15:10:16.445Z,66.15
2022-09-10T15:13:17.813Z,66.62
2022-09-10T15:16:19.153Z,67.01
2022-09-10T15:19:21.723Z,66.38
2022-09-10T15:22:28.436Z,66.86
2022-09-10T15:25:39.168Z,66.41
2022-09-10T15:28:41.492Z,66.50
2022-09-10T15:31:42.868Z,65.62
2022-09-10T15:34:44.285Z,65.64
2022-09-10T15:37:45.709Z,64.89
2022-09-10T15:40:49.088Z,64.61
2022-09-10T15:43:50.461Z,64.19
2022-09-10T15:46:51.877Z,64.14
2022-09-10T15:49:53.256Z,64.30
2022-09-10T15:52:54.653Z,64.49
2022-09-10T15:55:59.605Z,64.25
2022-09-10T15:59:00.963Z,64.60
2022-09-10T16:02:02.449Z,65.18
2022-09-10T16:05:04.417Z,66.17
2022-09-10T16:08:05.745Z,66.33
2022-09-10T16:11:09.257Z,66.27
2022-09-10T16:14:13.933Z,66.81
2022-09-10T16:17:15.266Z,67.50
2022-09-10T16:20:16.709Z,67.43
2022-09-10T16:23:18.059Z,67.42
2022-09-10T16:26:23.654Z,67.70
2022-09-10T16:29:24.990Z,68.70
2022-09-10T16:32:26.319Z,69.46
2022-09-10T16:35:27.647Z,70.04
2022-09-10T16:38:28.994Z,70.76
2022-09-10T16:41:31.075Z,72.01
2022-09-10T16:44:32.392Z,73.49
2022-09-10T16:47:33.875Z,74.10
2022-09-10T16:50:35.209Z,74.90
2022-09-10T16:53:37.068Z,75.34
2022-09-10T16:56:41.063Z,75.39
2022-09-10T16:59:42.416Z,75.75
2022-09-10T17:02:43.850Z,75.56
2022-09-10T17:05:45.365Z,75.11
2022-09-10T17:08:47.249Z,75.09
2022-09-10T17:11:48.665Z,74.80
2022-09-10T17:14:50.077Z,74.98
2022-09-10T17:17:51.438Z,75.23
2022-09-10T17:20:52.781Z,75.29
2022-09-10T17:23:55.434Z,75.55
2022-09-10T17:26:56.769Z,75.96
2022-09-10T17:30:01.002Z,76.24
2022-09-10T17:33:02.424Z,76.77
2022-09-10T17:36:04.182Z,76.75
2022-09-10T17:39:05.843Z,77.18
2022-09-10T17:42:07.290Z,77.43
2022-09-10T17:45:09.024Z,77.86
2022-09-10T17:48:10.397Z,78.19
2022-09-10T17:51:13.340Z,78.74
2022-09-10T17:54:14.688Z,79.38
2022-09-10T17:57:16.024Z,79.20
2022-09-10T18:00:17.470Z,79.14
2022-09-10T18:03:18.796Z,79.63
2022-09-10T18:06:20.988Z,79.76
2022-09-10T18:09:22.420Z,80.11
2022-09-10T18:12:23.832Z,80.43
2022-09-10T18:15:25.931Z,80.71
2022-09-10T18:18:27.277Z,81.03
2022-09-10T18:21:31.662Z,81.28
2022-09-10T18:24:33.014Z,81.41
2022-09-10T18:27:34.352Z,81.35
2022-09-10T18:30:35.721Z,81.49
2022-09-10T18:33:39.292Z,81.47
2022-09-10T18:36:41.257Z,81.96
2022-09-10T18:39:42.635Z,82.23
2022-09-10T18:42:46.761Z,82.43
2022-09-10T18:45:48.253Z,83.00
2022-09-10T18:48:50.950Z,83.26
2022-09-10T18:51:54.470Z,83.77
2022-09-10T18:54:55.805Z,84.17
2022-09-10T18:57:57.161Z,84.18
2022-09-10T19:01:10.373Z,84.25
2022-09-10T19:04:13.997Z,86.10
2022-09-10T19:07:15.369Z,85.09
2022-09-10T19:10:16.749Z,85.23
2022-09-10T19:13:18.129Z,85.29
2022-09-10T19:16:20.826Z,85.67
2022-09-10T19:19:28.122Z,85.99
2022-09-10T19:22:29.462Z,86.44
2022-09-10T19:25:30.826Z,86.85
2022-09-10T19:28:33.360Z,87.34
2022-09-10T19:31:35.114Z,86.93
2022-09-10T19:34:36.521Z,87.44
2022-09-10T19:37:37.889Z,87.21
2022-09-10T19:40:39.510Z,87.22
2022-09-10T19:43:41.228Z,87.57
2022-09-10T19:46:42.700Z,87.81
2022-09-10T19:49:44.104Z,87.61
2022-09-10T19:52:45.495Z,87.97
2022-09-10T19:55:46.961Z,88.54
2022-09-10T19:58:50.612Z,88.57
2022-09-10T20:01:52.055Z,88.92
2022-09-10T20:04:53.509Z,88.73
2022-09-10T20:07:54.858Z,89.23
2022-09-10T20:10:56.259Z,89.28
2022-09-10T20:14:02.918Z,89.49
2022-09-10T20:17:04.279Z,90.19
2022-09-10T20:20:05.920Z,90.57
2022-09-10T20:23:07.247Z,90.54
2022-09-10T20:26:14.350Z,90.62
2022-09-10T20:29:17.644Z,90.33
2022-09-10T20:32:19.166Z,90.25
2022-09-10T20:35:20.482Z,90.27
2022-09-10T20:38:21.827Z,90.67
2022-09-10T20:41:24.481Z,90.85
2022-09-10T20:44:25.843Z,91.33
2022-09-10T20:47:27.166Z,91.23
2022-09-10T20:50:28.533Z,90.79
2022-09-10T20:53:35.823Z,90.96
2022-09-10T20:56:37.176Z,90.68
2022-09-10T20:59:38.500Z,90.70
2022-09-10T21:02:39.899Z,90.84
2022-09-10T21:05:48.852Z,90.34
2022-09-10T21:08:50.227Z,90.80
2022-09-10T21:11:51.544Z,90.41
2022-09-10T21:14:52.872Z,90.49
2022-09-10T21:17:54.228Z,90.63
2022-09-10T21:21:05.140Z,90.41
2022-09-10T21:24:10.105Z,91.31
2022-09-10T21:27:11.480Z,91.30
2022-09-10T21:30:12.885Z,91.01
2022-09-10T21:33:14.213Z,91.58
2022-09-10T21:36:18.162Z,91.96
2022-09-10T21:39:19.533Z,91.82
2022-09-10T21:42:20.857Z,91.68
2022-09-10T21:45:26.138Z,91.60
2022-09-10T21:48:27.937Z,91.49
2022-09-10T21:51:29.552Z,91.77
2022-09-10T21:54:30.930Z,91.76
2022-09-10T21:57:32.273Z,91.89
2022-09-10T22:00:33.638Z,92.27
2022-09-10T22:03:34.993Z,92.44
2022-09-10T22:06:36.718Z,92.61
2022-09-10T22:09:38.070Z,92.79
2022-09-10T22:12:39.389Z,92.75
2022-09-10T22:15:42.313Z,92.94
2022-09-10T22:18:43.669Z,92.96
2022-09-10T22:21:45.722Z,93.55
2022-09-10T22:24:47.035Z,93.14
2022-09-10T22:27:48.379Z,93.31
2022-09-10T22:30:49.746Z,93.69
2022-09-10T22:33:56.643Z,93.73
2022-09-10T22:36:57.954Z,93.51
2022-09-10T22:39:59.321Z,93.17
2022-09-10T22:43:00.675Z,93.03
2022-09-10T22:46:02.255Z,93.12
2022-09-10T22:49:04.984Z,92.96
2022-09-10T22:52:06.307Z,93.23
2022-09-10T22:55:08.204Z,93.49
2022-09-10T22:58:09.940Z,93.33
2022-09-10T23:01:14.454Z,93.58
2022-09-10T23:04:15.978Z,93.96
2022-09-10T23:07:17.317Z,94.16
2022-09-10T23:10:18.816Z,93.70
2022-09-10T23:13:20.195Z,93.90
2022-09-10T23:16:33.320Z,93.84
2022-09-10T23:19:34.668Z,94.28
2022-09-10T23:22:36.021Z,94.17
2022-09-10T23:25:37.338Z,93.88
2022-09-10T23:28:39.302Z,94.10
2022-09-10T23:31:40.762Z,94.17
2022-09-10T23:34:42.137Z,93.98
2022-09-10T23:37:43.462Z,93.95
2022-09-10T23:40:44.806Z,93.83
2022-09-10T23:43:46.181Z,93.49
2022-09-10T23:46:47.585Z,94.17
2022-09-10T23:49:48.963Z,93.99
2022-09-10T23:52:50.298Z,93.73
2022-09-10T23:55:52.062Z,93.94
2022-09-10T23:58:53.770Z,94.05
